Time;durP1;ratioP1;P1;durP2;ratioP2;P2;SDS_P1;SDS_P2;PMS_P1;PMS_P2;Temp;Humidity;BMP_temperature;BMP_pressure;BME280_temperature;BME280_humidity;BME280_pressure;Samples;Min_cycle;Max_cycle;Signal;HPM_P1;HPM_P2
2023/07/07 00:01:45;;;;;;;3.38;1.10;;;;;;;;;;5001629;28;20033;-74
2023/07/07 00:04:11;;;;;;;2.35;1.23;;;;;;;;;;5001323;28;20318;-74
2023/07/07 00:06:36;;;;;;;3.58;1.25;;;;;;;;;;5000454;28;20312;-73
2023/07/07 00:09:03;;;;;;;1.40;0.90;;;;;;;;;;4996040;28;20030;-73
2023/07/07 00:11:28;;;;;;;2.78;1.08;;;;;;;;;;5000372;28;20234;-72
2023/07/07 00:13:54;;;;;;;2.42;1.20;;;;;;;;;;4997595;28;20042;-73
2023/07/07 00:16:27;;;;;;;1.73;1.05;;;;;;;;;;4999592;28;20018;-74
2023/07/07 00:18:54;;;;;;;1.92;1.17;;;;;;;;;;4997720;28;20303;-74
2023/07/07 00:21:24;;;;;;;2.50;1.20;;;;;;;;;;5001134;28;20222;-73
2023/07/07 00:23:53;;;;;;;1.73;1.20;;;;;;;;;;5000413;28;20300;-73
2023/07/07 00:26:19;;;;;;;2.25;1.30;;;;;;;;;;5000394;28;20038;-74
2023/07/07 00:28:45;;;;;;;3.83;1.33;;;;;;;;;;4997639;28;20034;-74
2023/07/07 00:31:10;;;;;;;2.03;1.17;;;;;;;;;;5000919;28;20365;-73
2023/07/07 00:33:35;;;;;;;2.25;1.10;;;;;;;;;;5000333;28;20042;-71
2023/07/07 00:36:01;;;;;;;2.28;1.33;;;;;;;;;;5000965;28;20242;-73
2023/07/07 00:38:26;;;;;;;1.73;1.00;;;;;;;;;;5000069;28;20034;-74
2023/07/07 00:40:53;;;;;;;2.28;1.40;;;;;;;;;;5000382;28;20026;-73
2023/07/07 00:43:19;;;;;;;3.47;1.10;;;;;;;;;;5000012;28;20035;-73
2023/07/07 00:45:45;;;;;;;4.30;1.27;;;;;;;;;;4999007;28;20037;-70
2023/07/07 00:48:15;;;;;;;2.33;1.27;;;;;;;;;;5000717;28;20049;-74
2023/07/07 00:50:49;;;;;;;1.30;0.90;;;;;;;;;;4999620;28;20084;-74
2023/07/07 00:53:15;;;;;;;1.13;0.75;;;;;;;;;;5000527;28;20022;-74
2023/07/07 00:55:45;;;;;;;2.38;1.35;;;;;;;;;;4996771;28;20027;-74
2023/07/07 00:58:13;;;;;;;1.27;0.77;;;;;;;;;;4999677;28;20208;-73
2023/07/07 01:00:42;;;;;;;2.40;1.25;;;;;;;;;;4998505;28;20668;-74
2023/07/07 01:03:13;;;;;;;1.88;1.15;;;;;;;;;;5000761;28;20205;-72
2023/07/07 01:05:41;;;;;;;2.55;1.10;;;;;;;;;;5000043;28;20046;-72
2023/07/07 01:08:07;;;;;;;2.08;1.20;;;;;;;;;;4999724;28;20046;-73
2023/07/07 01:10:33;;;;;;;1.73;1.00;;;;;;;;;;4999781;28;20089;-73
2023/07/07 01:12:59;;;;;;;5.25;1.05;;;;;;;;;;5000792;28;20322;-75
2023/07/07 01:15:30;;;;;;;4.72;1.10;;;;;;;;;;4997696;28;20574;-73
2023/07/07 01:18:49;;;;;;;1.17;0.88;;;;;;;;;;5000778;28;20030;-74
2023/07/07 01:21:29;;;;;;;2.25;1.17;;;;;;;;;;5017772;28;20038;-74
2023/07/07 01:24:24;;;;;;;2.65;1.30;;;;;;;;;;5018138;28;20038;-73
2023/07/07 01:27:17;;;;;;;2.67;0.80;;;;;;;;;;5004021;28;20065;-75
2023/07/07 01:30:24;;;;;;;1.17;0.75;;;;;;;;;;5004335;28;20038;-74
2023/07/07 01:32:50;;;;;;;2.60;1.17;;;;;;;;;;5020978;28;20101;-74
2023/07/07 01:35:19;;;;;;;1.60;0.93;;;;;;;;;;5006763;28;20046;-73
2023/07/07 01:37:52;;;;;;;2.83;1.05;;;;;;;;;;5000257;28;20034;-74
2023/07/07 01:40:17;;;;;;;1.40;0.93;;;;;;;;;;5000503;28;20204;-75
2023/07/07 01:42:50;;;;;;;1.45;0.90;;;;;;;;;;5018260;28;20060;-74
2023/07/07 01:45:45;;;;;;;1.38;0.95;;;;;;;;;;5003900;28;20049;-73
2023/07/07 01:48:27;;;;;;;2.63;1.30;;;;;;;;;;5005412;28;20057;-75
2023/07/07 01:50:54;;;;;;;2.05;1.00;;;;;;;;;;5002998;28;20030;-74
2023/07/07 01:53:24;;;;;;;1.92;1.02;;;;;;;;;;5003468;28;20382;-75
2023/07/07 01:55:55;;;;;;;2.15;1.00;;;;;;;;;;5003659;28;20030;-74
2023/07/07 01:58:22;;;;;;;1.67;1.00;;;;;;;;;;5003854;28;20038;-74
2023/07/07 02:00:50;;;;;;;4.35;1.25;;;;;;;;;;5003553;28;20034;-73
2023/07/07 02:03:17;;;;;;;1.90;0.90;;;;;;;;;;5003751;28;20022;-74
2023/07/07 02:05:42;;;;;;;1.85;0.80;;;;;;;;;;5000313;28;20038;-74
2023/07/07 02:08:07;;;;;;;1.85;1.00;;;;;;;;;;5003450;28;20327;-72
2023/07/07 02:10:33;;;;;;;0.95;0.80;;;;;;;;;;5002560;28;20034;-74
2023/07/07 02:12:58;;;;;;;3.03;1.10;;;;;;;;;;5000531;28;20038;-74
2023/07/07 02:15:24;;;;;;;2.10;1.02;;;;;;;;;;5002500;28;20031;-75
2023/07/07 02:17:50;;;;;;;1.80;0.93;;;;;;;;;;5003458;28;20314;-71
2023/07/07 02:20:15;;;;;;;1.45;0.85;;;;;;;;;;5003124;28;20038;-74
2023/07/07 02:22:41;;;;;;;0.60;0.60;;;;;;;;;;5003160;28;20098;-74
2023/07/07 02:25:07;;;;;;;1.73;0.95;;;;;;;;;;5003148;28;20322;-74
2023/07/07 02:27:32;;;;;;;1.05;0.65;;;;;;;;;;5000294;28;20096;-74
2023/07/07 02:29:58;;;;;;;2.15;1.05;;;;;;;;;;5002414;28;20326;-74
2023/07/07 02:32:25;;;;;;;1.25;0.70;;;;;;;;;;5002047;28;20140;-73
2023/07/07 02:34:55;;;;;;;2.88;1.00;;;;;;;;;;5002571;28;20441;-75
2023/07/07 02:37:21;;;;;;;3.85;1.17;;;;;;;;;;4998078;28;20022;-75
2023/07/07 02:39:46;;;;;;;3.08;0.90;;;;;;;;;;5002844;28;20034;-74
2023/07/07 02:42:13;;;;;;;1.55;1.08;;;;;;;;;;5001443;28;20203;-74
2023/07/07 02:44:39;;;;;;;3.13;1.00;;;;;;;;;;5001097;28;20173;-74
2023/07/07 02:47:05;;;;;;;1.40;0.85;;;;;;;;;;5002778;28;20326;-73
2023/07/07 02:49:30;;;;;;;1.55;0.80;;;;;;;;;;5002927;28;20034;-74
2023/07/07 02:51:56;;;;;;;1.75;0.90;;;;;;;;;;5002269;28;20037;-73
2023/07/07 02:54:21;;;;;;;1.25;0.77;;;;;;;;;;5002244;28;20077;-74
2023/07/07 02:56:47;;;;;;;4.50;0.70;;;;;;;;;;5002516;28;20105;-74
2023/07/07 02:59:12;;;;;;;2.35;1.10;;;;;;;;;;5002421;28;20030;-72
2023/07/07 03:01:37;;;;;;;3.38;0.80;;;;;;;;;;5001223;28;20052;-75
2023/07/07 03:04:04;;;;;;;3.60;0.90;;;;;;;;;;5002258;28;20030;-75
2023/07/07 03:06:30;;;;;;;2.55;0.88;;;;;;;;;;5001028;28;20022;-73
2023/07/07 03:08:55;;;;;;;1.23;0.82;;;;;;;;;;5002136;28;20027;-75
2023/07/07 03:11:22;;;;;;;1.73;0.95;;;;;;;;;;5002378;28;20045;-74
2023/07/07 03:13:49;;;;;;;1.00;0.60;;;;;;;;;;5001865;28;20102;-74
2023/07/07 03:16:20;;;;;;;1.95;0.85;;;;;;;;;;5002250;28;20326;-74
2023/07/07 03:18:53;;;;;;;1.88;0.90;;;;;;;;;;4997471;28;20068;-74
2023/07/07 03:21:20;;;;;;;2.80;1.00;;;;;;;;;;5002328;28;20033;-74
2023/07/07 03:23:45;;;;;;;1.98;1.10;;;;;;;;;;5001643;28;20026;-74
2023/07/07 03:26:13;;;;;;;2.85;1.15;;;;;;;;;;4999379;28;20034;-74
2023/07/07 03:28:39;;;;;;;2.47;1.02;;;;;;;;;;5001520;28;20093;-70
2023/07/07 03:31:15;;;;;;;1.63;0.82;;;;;;;;;;4997851;28;20038;-74
2023/07/07 03:33:45;;;;;;;2.35;0.90;;;;;;;;;;5001892;28;20050;-72
2023/07/07 03:36:12;;;;;;;1.70;0.80;;;;;;;;;;5000188;28;20030;-74
2023/07/07 03:38:39;;;;;;;1.48;0.80;;;;;;;;;;5001701;28;20022;-71
2023/07/07 03:41:06;;;;;;;1.48;0.80;;;;;;;;;;5015449;28;20501;-75
2023/07/07 03:43:35;;;;;;;2.15;0.93;;;;;;;;;;4997298;28;20218;-74
2023/07/07 03:46:01;;;;;;;2.05;0.93;;;;;;;;;;5000255;28;20069;-73
2023/07/07 03:48:27;;;;;;;2.72;0.73;;;;;;;;;;5000248;28;20030;-74
2023/07/07 03:51:01;;;;;;;1.23;0.80;;;;;;;;;;5000527;28;20101;-74
2023/07/07 03:53:28;;;;;;;1.90;0.90;;;;;;;;;;4999566;28;20045;-73
2023/07/07 03:55:54;;;;;;;1.77;0.90;;;;;;;;;;4999242;28;20042;-74
2023/07/07 03:58:20;;;;;;;3.58;1.08;;;;;;;;;;5001620;28;20033;-72
2023/07/07 04:00:46;;;;;;;1.20;0.82;;;;;;;;;;4999968;28;20014;-73
2023/07/07 04:03:12;;;;;;;2.63;0.90;;;;;;;;;;4998783;28;20090;-74
2023/07/07 04:05:49;;;;;;;1.55;0.90;;;;;;;;;;5001267;28;20034;-73
2023/07/07 04:08:23;;;;;;;3.03;1.23;;;;;;;;;;4999474;28;20325;-71
2023/07/07 04:11:05;;;;;;;1.27;0.93;;;;;;;;;;5000381;28;20038;-74
2023/07/07 04:13:33;;;;;;;1.95;1.20;;;;;;;;;;5000382;28;20033;-74
2023/07/07 04:16:05;;;;;;;1.40;0.80;;;;;;;;;;4998354;28;20045;-74
2023/07/07 04:18:34;;;;;;;1.52;1.05;;;;;;;;;;5001107;28;20030;-75
2023/07/07 04:21:01;;;;;;;3.60;0.90;;;;;;;;;;5001258;28;20085;-73
2023/07/07 04:23:27;;;;;;;1.63;0.90;;;;;;;;;;5000779;28;20555;-69
2023/07/07 04:25:52;;;;;;;5.88;0.95;;;;;;;;;;4997312;28;20057;-74
2023/07/07 04:28:18;;;;;;;2.13;0.98;;;;;;;;;;4995762;28;20242;-72
2023/07/07 04:30:44;;;;;;;3.83;1.13;;;;;;;;;;5000302;28;20061;-74
2023/07/07 04:33:12;;;;;;;1.80;1.08;;;;;;;;;;4995917;28;20046;-73
2023/07/07 04:35:38;;;;;;;1.55;0.98;;;;;;;;;;5001108;28;20454;-74
2023/07/07 04:38:03;;;;;;;2.35;1.02;;;;;;;;;;5000435;28;20102;-74
2023/07/07 04:40:31;;;;;;;3.08;1.10;;;;;;;;;;5000706;28;20102;-74
2023/07/07 04:42:56;;;;;;;1.42;1.05;;;;;;;;;;4996187;28;20041;-74
2023/07/07 04:45:22;;;;;;;2.22;0.77;;;;;;;;;;4999870;28;20101;-74
2023/07/07 04:47:47;;;;;;;4.50;1.05;;;;;;;;;;4998394;28;20026;-73
2023/07/07 04:50:13;;;;;;;3.45;1.30;;;;;;;;;;5016105;28;20022;-70
2023/07/07 04:52:39;;;;;;;2.20;1.10;;;;;;;;;;5000374;28;20030;-74
2023/07/07 04:55:05;;;;;;;1.75;0.95;;;;;;;;;;5000796;28;20097;-69
2023/07/07 04:57:30;;;;;;;3.35;1.00;;;;;;;;;;4997873;28;20037;-73
2023/07/07 04:59:56;;;;;;;2.60;1.10;;;;;;;;;;5000233;28;20228;-66
2023/07/07 05:02:22;;;;;;;1.65;1.00;;;;;;;;;;4999291;28;20034;-74
2023/07/07 05:04:49;;;;;;;1.60;0.90;;;;;;;;;;4997864;28;20102;-74
2023/07/07 05:07:14;;;;;;;1.05;0.68;;;;;;;;;;5000234;28;20333;-73
2023/07/07 05:09:40;;;;;;;3.10;1.08;;;;;;;;;;5000690;28;20044;-74
2023/07/07 05:12:07;;;;;;;2.05;1.00;;;;;;;;;;5000243;28;20109;-74
2023/07/07 05:14:32;;;;;;;1.13;0.90;;;;;;;;;;5000567;28;20349;-74
2023/07/07 05:16:58;;;;;;;2.55;0.95;;;;;;;;;;5000502;28;20030;-73
2023/07/07 05:19:23;;;;;;;1.50;1.00;;;;;;;;;;5000529;28;20037;-74
2023/07/07 05:21:48;;;;;;;3.30;1.13;;;;;;;;;;4999419;28;20030;-74
2023/07/07 05:24:14;;;;;;;3.58;1.23;;;;;;;;;;4998745;28;20323;-73
2023/07/07 05:26:39;;;;;;;1.70;1.00;;;;;;;;;;4999341;28;20124;-74
2023/07/07 05:29:05;;;;;;;2.85;1.08;;;;;;;;;;5000441;28;20064;-74
2023/07/07 05:31:32;;;;;;;1.95;0.98;;;;;;;;;;5000372;28;20093;-74
2023/07/07 05:33:57;;;;;;;1.67;1.10;;;;;;;;;;5000203;28;20066;-74
2023/07/07 05:36:23;;;;;;;1.80;1.05;;;;;;;;;;4998946;28;20292;-72
2023/07/07 05:38:49;;;;;;;1.80;1.13;;;;;;;;;;4998952;28;20359;-69
2023/07/07 05:41:15;;;;;;;2.22;1.00;;;;;;;;;;4996390;28;20023;-73
2023/07/07 05:43:41;;;;;;;1.50;1.10;;;;;;;;;;4999900;28;20097;-73
2023/07/07 05:46:13;;;;;;;2.08;1.15;;;;;;;;;;5000330;28;20034;-72
2023/07/07 05:48:39;;;;;;;1.92;1.00;;;;;;;;;;5000202;28;20065;-71
2023/07/07 05:51:08;;;;;;;1.98;1.25;;;;;;;;;;5000205;28;20019;-74
2023/07/07 05:53:34;;;;;;;2.60;1.30;;;;;;;;;;4997997;28;20309;-73
2023/07/07 05:56:09;;;;;;;2.22;1.40;;;;;;;;;;5000318;28;20246;-74
2023/07/07 05:58:35;;;;;;;3.83;1.13;;;;;;;;;;4997253;28;20034;-74
2023/07/07 06:01:01;;;;;;;2.80;1.27;;;;;;;;;;5000337;28;20030;-70
2023/07/07 06:03:26;;;;;;;1.90;1.00;;;;;;;;;;5000010;28;20133;-73
2023/07/07 06:05:52;;;;;;;3.03;1.10;;;;;;;;;;4997214;28;20283;-74
2023/07/07 06:08:17;;;;;;;2.10;1.13;;;;;;;;;;4997838;28;20038;-74
2023/07/07 06:10:48;;;;;;;2.40;1.15;;;;;;;;;;4998965;28;20033;-74
2023/07/07 06:13:16;;;;;;;;;;;;;;;;;;5004129;28;20026;-73
2023/07/07 06:15:42;;;;;;;1.98;1.20;;;;;;;;;;5003701;28;19906;-74
2023/07/07 06:18:08;;;;;;;1.10;0.80;;;;;;;;;;5001583;28;20040;-74
2023/07/07 06:20:33;;;;;;;5.78;1.63;;;;;;;;;;5001747;28;20018;-74
2023/07/07 06:22:58;;;;;;;1.83;1.02;;;;;;;;;;5002980;28;20486;-74
2023/07/07 06:25:24;;;;;;;1.48;1.02;;;;;;;;;;5000203;28;20030;-74
2023/07/07 06:27:49;;;;;;;1.75;1.20;;;;;;;;;;5001178;28;20026;-74
2023/07/07 06:30:15;;;;;;;2.92;1.45;;;;;;;;;;5001618;28;20030;-74
2023/07/07 06:32:40;;;;;;;3.22;1.15;;;;;;;;;;5001526;28;20038;-74
2023/07/07 06:35:06;;;;;;;6.82;1.50;;;;;;;;;;5001452;28;20332;-73
2023/07/07 06:37:31;;;;;;;1.38;0.90;;;;;;;;;;4999530;28;20034;-74
2023/07/07 06:39:56;;;;;;;1.92;1.05;;;;;;;;;;5001226;28;20222;-74
2023/07/07 06:42:22;;;;;;;2.20;1.10;;;;;;;;;;5003029;28;20226;-72
2023/07/07 06:44:48;;;;;;;3.28;1.40;;;;;;;;;;5002271;28;20034;-73
2023/07/07 06:47:16;;;;;;;2.33;1.35;;;;;;;;;;5002840;28;20034;-73
2023/07/07 06:49:41;;;;;;;1.33;0.95;;;;;;;;;;5002823;28;20022;-74
2023/07/07 06:52:07;;;;;;;3.13;1.40;;;;;;;;;;5001934;28;20046;-74
2023/07/07 06:54:33;;;;;;;2.78;1.33;;;;;;;;;;5002739;28;20030;-73
2023/07/07 06:56:58;;;;;;;4.55;1.10;;;;;;;;;;5002897;28;20100;-74
2023/07/07 06:59:24;;;;;;;4.00;1.10;;;;;;;;;;5002483;28;20022;-74
2023/07/07 07:01:49;;;;;;;1.45;0.98;;;;;;;;;;5002527;28;20026;-74
2023/07/07 07:04:15;;;;;;;2.65;1.30;;;;;;;;;;5002551;28;20200;-74
2023/07/07 07:06:44;;;;;;;1.98;1.20;;;;;;;;;;4999781;28;20278;-74
2023/07/07 07:09:09;;;;;;;2.28;1.23;;;;;;;;;;5002000;28;20026;-73
2023/07/07 07:11:35;;;;;;;3.65;1.13;;;;;;;;;;5002166;28;20038;-74
2023/07/07 07:14:00;;;;;;;1.48;0.93;;;;;;;;;;5000602;28;20026;-74
2023/07/07 07:16:26;;;;;;;3.33;1.42;;;;;;;;;;5002409;28;20053;-75
2023/07/07 07:18:51;;;;;;;2.55;1.42;;;;;;;;;;5002149;28;20226;-75
2023/07/07 07:21:17;;;;;;;4.30;1.60;;;;;;;;;;4998802;28;20037;-75
2023/07/07 07:23:42;;;;;;;2.22;1.20;;;;;;;;;;5000353;28;20022;-74
2023/07/07 07:26:07;;;;;;;2.75;1.48;;;;;;;;;;5001122;28;20057;-75
2023/07/07 07:28:33;;;;;;;3.42;1.40;;;;;;;;;;5001488;28;20095;-75
2023/07/07 07:30:58;;;;;;;3.15;1.40;;;;;;;;;;5000373;28;20078;-75
2023/07/07 07:33:24;;;;;;;3.13;1.50;;;;;;;;;;5001824;28;20038;-74
2023/07/07 07:35:49;;;;;;;4.97;1.50;;;;;;;;;;5002028;28;20440;-75
2023/07/07 07:38:17;;;;;;;4.20;1.63;;;;;;;;;;5001583;28;20049;-75
2023/07/07 07:40:43;;;;;;;2.95;1.70;;;;;;;;;;5001933;28;20015;-74
2023/07/07 07:43:08;;;;;;;3.20;1.85;;;;;;;;;;5001638;28;20034;-74
2023/07/07 07:45:35;;;;;;;6.85;1.90;;;;;;;;;;5001789;28;20064;-74
2023/07/07 07:48:01;;;;;;;2.95;1.70;;;;;;;;;;5001477;28;20041;-73
2023/07/07 07:50:26;;;;;;;3.63;1.58;;;;;;;;;;5001596;28;20030;-75
2023/07/07 07:52:52;;;;;;;3.78;1.67;;;;;;;;;;4999859;28;20046;-70
2023/07/07 07:55:18;;;;;;;3.10;1.60;;;;;;;;;;5001597;28;20061;-75
2023/07/07 07:57:43;;;;;;;4.07;1.63;;;;;;;;;;4999768;28;20218;-74
2023/07/07 08:00:10;;;;;;;3.55;1.67;;;;;;;;;;5001579;28;20057;-73
2023/07/07 08:02:37;;;;;;;3.88;1.58;;;;;;;;;;5001683;28;20050;-75
2023/07/07 08:05:02;;;;;;;2.30;1.40;;;;;;;;;;5001433;28;20125;-74
2023/07/07 08:07:28;;;;;;;2.28;1.60;;;;;;;;;;4997993;28;20025;-75
2023/07/07 08:09:53;;;;;;;3.83;1.55;;;;;;;;;;5000842;28;20022;-72
2023/07/07 08:12:19;;;;;;;3.88;1.50;;;;;;;;;;5001226;28;20026;-74
2023/07/07 08:14:44;;;;;;;2.08;1.33;;;;;;;;;;5001285;28;20033;-71
2023/07/07 08:17:12;;;;;;;4.95;1.38;;;;;;;;;;4997427;28;20038;-74
2023/07/07 08:19:39;;;;;;;4.50;1.77;;;;;;;;;;5000859;28;20030;-74
2023/07/07 08:22:08;;;;;;;2.90;1.77;;;;;;;;;;5000866;28;20045;-72
2023/07/07 08:24:52;;;;;;;2.53;1.67;;;;;;;;;;5001275;28;20049;-75
2023/07/07 08:27:19;;;;;;;3.45;1.73;;;;;;;;;;4996529;28;20030;-74
2023/07/07 08:29:44;;;;;;;2.38;1.58;;;;;;;;;;5000880;28;20050;-72
2023/07/07 08:32:17;;;;;;;2.53;1.60;;;;;;;;;;5000905;28;20234;-74
2023/07/07 08:34:43;;;;;;;2.28;1.60;;;;;;;;;;4999992;28;20041;-74
2023/07/07 08:37:10;;;;;;;4.25;1.85;;;;;;;;;;5000683;28;20034;-74
2023/07/07 08:39:36;;;;;;;2.90;1.80;;;;;;;;;;5000841;28;20026;-75
2023/07/07 08:42:35;;;;;;;2.92;1.90;;;;;;;;;;5000685;28;20034;-74
2023/07/07 08:45:05;;;;;;;4.40;2.10;;;;;;;;;;5001529;28;20045;-75
2023/07/07 08:48:10;;;;;;;3.17;1.63;;;;;;;;;;5000809;28;20025;-75
2023/07/07 08:51:02;;;;;;;3.05;1.70;;;;;;;;;;5000586;28;20038;-75
2023/07/07 08:53:55;;;;;;;3.08;1.77;;;;;;;;;;5000268;28;20027;-74
2023/07/07 08:56:37;;;;;;;2.85;1.70;;;;;;;;;;5000764;28;20050;-75
2023/07/07 08:59:06;;;;;;;3.28;1.70;;;;;;;;;;5000690;28;20033;-74
2023/07/07 09:01:50;;;;;;;3.28;1.75;;;;;;;;;;4998610;28;20026;-74
2023/07/07 09:04:30;;;;;;;3.20;1.85;;;;;;;;;;5000637;28;20022;-71
2023/07/07 09:07:25;;;;;;;3.67;2.03;;;;;;;;;;4999193;28;20026;-72
2023/07/07 09:09:58;;;;;;;3.88;2.20;;;;;;;;;;5000318;28;20030;-74
2023/07/07 09:12:42;;;;;;;2.85;1.80;;;;;;;;;;5000079;28;20069;-74
2023/07/07 09:15:29;;;;;;;2.97;2.00;;;;;;;;;;4999868;28;20034;-73
2023/07/07 09:18:01;;;;;;;2.35;1.70;;;;;;;;;;5000119;28;20410;-74
2023/07/07 09:20:30;;;;;;;5.18;1.75;;;;;;;;;;4998732;28;20341;-74
2023/07/07 09:23:24;;;;;;;5.05;2.08;;;;;;;;;;5000258;28;20028;-75
2023/07/07 09:26:25;;;;;;;4.20;1.98;;;;;;;;;;4998941;28;20038;-75
2023/07/07 09:28:52;;;;;;;;;;;;;;;;;;5002229;28;20172;-74
2023/07/07 09:31:45;;;;;;;4.03;1.80;;;;;;;;;;4999005;28;19917;-74
2023/07/07 09:34:13;;;;;;;3.25;1.67;;;;;;;;;;5000914;28;20072;-74
2023/07/07 09:36:56;;;;;;;4.80;2.47;;;;;;;;;;4998736;28;20097;-74
2023/07/07 09:39:55;;;;;;;3.05;1.80;;;;;;;;;;4997654;28;20073;-74
2023/07/07 09:42:38;;;;;;;4.15;1.85;;;;;;;;;;4999670;28;20322;-74
2023/07/07 09:45:15;;;;;;;3.15;1.70;;;;;;;;;;5001081;28;20043;-71
2023/07/07 09:47:53;;;;;;;2.60;1.75;;;;;;;;;;5002914;28;20034;-74
2023/07/07 09:50:38;;;;;;;2.50;1.58;;;;;;;;;;5018799;28;20120;-75
2023/07/07 09:53:21;;;;;;;2.60;1.50;;;;;;;;;;5001954;28;20330;-71
2023/07/07 09:55:47;;;;;;;2.50;1.70;;;;;;;;;;5003620;28;20022;-75
2023/07/07 09:58:20;;;;;;;4.07;1.60;;;;;;;;;;5003662;28;20413;-74
2023/07/07 10:00:50;;;;;;;2.63;1.73;;;;;;;;;;5003532;28;20089;-74
2023/07/07 10:03:44;;;;;;;4.05;2.00;;;;;;;;;;5001559;28;20633;-74
2023/07/07 10:06:33;;;;;;;2.22;1.58;;;;;;;;;;5005352;28;20093;-74
2023/07/07 10:09:00;;;;;;;3.13;1.63;;;;;;;;;;5003520;28;20086;-74
2023/07/07 10:11:29;;;;;;;4.15;1.80;;;;;;;;;;5003389;28;20030;-74
2023/07/07 10:13:56;;;;;;;2.00;1.27;;;;;;;;;;5002442;28;20038;-73
2023/07/07 10:16:30;;;;;;;2.97;1.70;;;;;;;;;;5001522;28;20322;-73
2023/07/07 10:18:57;;;;;;;2.05;1.42;;;;;;;;;;5002511;28;20026;-74
2023/07/07 10:21:23;;;;;;;3.42;1.33;;;;;;;;;;5003436;28;20030;-74
2023/07/07 10:23:48;;;;;;;3.08;1.60;;;;;;;;;;4999718;28;20033;-75
2023/07/07 10:26:14;;;;;;;3.30;1.60;;;;;;;;;;5003145;28;20319;-75
2023/07/07 10:28:40;;;;;;;2.33;1.40;;;;;;;;;;5002912;28;20041;-74
2023/07/07 10:31:05;;;;;;;3.90;1.52;;;;;;;;;;5002860;28;20318;-74
2023/07/07 10:33:31;;;;;;;5.18;1.80;;;;;;;;;;5002456;28;20042;-73
2023/07/07 10:35:56;;;;;;;2.20;1.48;;;;;;;;;;5003058;28;20034;-76
2023/07/07 10:38:23;;;;;;;1.73;1.20;;;;;;;;;;5002915;28;20133;-75
2023/07/07 10:40:48;;;;;;;2.20;1.50;;;;;;;;;;5001651;28;20285;-74
2023/07/07 10:43:16;;;;;;;3.65;1.60;;;;;;;;;;5003167;28;20345;-74
2023/07/07 10:45:45;;;;;;;3.13;1.50;;;;;;;;;;5000419;28;20046;-74
2023/07/07 10:48:12;;;;;;;1.58;1.10;;;;;;;;;;4998988;28;20030;-75
2023/07/07 10:51:10;;;;;;;2.22;1.40;;;;;;;;;;4996621;28;20355;-75
2023/07/07 10:53:57;;;;;;;3.25;1.40;;;;;;;;;;5002652;28;20030;-74
2023/07/07 10:56:33;;;;;;;2.58;1.40;;;;;;;;;;5002241;28;20038;-69
2023/07/07 10:59:16;;;;;;;5.05;1.48;;;;;;;;;;5002615;28;20303;-73
2023/07/07 11:02:08;;;;;;;2.22;1.23;;;;;;;;;;5000770;28;20029;-74
2023/07/07 11:05:03;;;;;;;2.22;1.20;;;;;;;;;;5002772;28;20023;-73
2023/07/07 11:07:50;;;;;;;2.78;1.08;;;;;;;;;;5002312;28;20029;-75
2023/07/07 11:10:47;;;;;;;1.60;1.20;;;;;;;;;;5002544;28;20026;-75
2023/07/07 11:13:19;;;;;;;1.92;1.23;;;;;;;;;;5016488;28;20054;-75
2023/07/07 11:16:08;;;;;;;2.47;1.02;;;;;;;;;;5017534;28;20057;-74
2023/07/07 11:19:04;;;;;;;1.65;1.08;;;;;;;;;;5002650;28;20030;-74
2023/07/07 11:21:45;;;;;;;4.85;1.20;;;;;;;;;;5002093;28;20050;-75
2023/07/07 11:24:27;;;;;;;1.90;1.10;;;;;;;;;;5002335;28;20040;-75
2023/07/07 11:26:55;;;;;;;1.48;1.00;;;;;;;;;;5002158;28;20022;-75
2023/07/07 11:29:46;;;;;;;3.75;1.10;;;;;;;;;;5002158;28;20341;-74
2023/07/07 11:32:23;;;;;;;2.03;1.13;;;;;;;;;;5002076;28;20393;-75
2023/07/07 11:35:06;;;;;;;1.90;1.13;;;;;;;;;;5002130;28;20050;-75
2023/07/07 11:38:01;;;;;;;2.17;1.10;;;;;;;;;;5000938;28;20026;-75
2023/07/07 11:40:44;;;;;;;4.28;1.05;;;;;;;;;;4998881;28;20034;-74
2023/07/07 11:43:25;;;;;;;2.85;1.00;;;;;;;;;;5001142;28;20093;-74
2023/07/07 11:46:08;;;;;;;;;;;;;;;;;;4999670;28;20097;-75
2023/07/07 11:48:52;;;;;;;2.83;1.10;;;;;;;;;;5000268;28;19914;-74
2023/07/07 11:51:26;;;;;;;2.97;1.17;;;;;;;;;;5001684;28;20372;-75
2023/07/07 11:54:17;;;;;;;4.10;1.20;;;;;;;;;;5000583;28;20379;-74
2023/07/07 11:57:11;;;;;;;2.53;1.17;;;;;;;;;;5001546;28;20101;-74
2023/07/07 12:00:10;;;;;;;2.90;1.20;;;;;;;;;;5001747;28;20094;-73
2023/07/07 12:02:44;;;;;;;3.30;1.15;;;;;;;;;;5001185;28;20029;-75
2023/07/07 12:05:13;;;;;;;3.30;1.05;;;;;;;;;;4999837;28;20034;-75
2023/07/07 12:07:49;;;;;;;0.82;0.70;;;;;;;;;;4999246;28;20061;-74
2023/07/07 12:10:29;;;;;;;2.17;0.90;;;;;;;;;;5000600;28;20030;-74
2023/07/07 12:13:01;;;;;;;1.70;1.00;;;;;;;;;;5001226;28;20026;-75
2023/07/07 12:15:43;;;;;;;2.42;1.10;;;;;;;;;;5001405;28;20122;-74
2023/07/07 12:18:08;;;;;;;2.03;1.10;;;;;;;;;;4998817;28;20590;-74
2023/07/07 12:20:38;;;;;;;3.35;1.02;;;;;;;;;;5001007;28;20022;-74
2023/07/07 12:23:09;;;;;;;;;;;;;;;;;;5001110;28;20089;-74
2023/07/07 12:25:34;;;;;;;1.63;1.00;;;;;;;;;;5001000;28;19910;-74
2023/07/07 12:28:00;;;;;;;5.97;1.30;;;;;;;;;;5000067;28;20069;-74
2023/07/07 12:30:33;;;;;;;1.48;1.00;;;;;;;;;;4999891;28;20026;-74
2023/07/07 12:32:59;;;;;;;2.80;1.08;;;;;;;;;;4999240;28;20054;-74
2023/07/07 12:35:31;;;;;;;2.22;1.10;;;;;;;;;;5000670;28;20049;-74
2023/07/07 12:38:27;;;;;;;6.25;1.20;;;;;;;;;;4997443;28;20026;-74
2023/07/07 12:41:14;;;;;;;3.00;1.40;;;;;;;;;;4999608;28;20038;-74
2023/07/07 12:43:49;;;;;;;2.58;1.17;;;;;;;;;;4998702;28;20022;-74
2023/07/07 12:46:22;;;;;;;1.65;1.02;;;;;;;;;;5000030;28;20034;-71
2023/07/07 12:48:49;;;;;;;2.13;1.20;;;;;;;;;;5000732;28;20321;-75
2023/07/07 12:51:17;;;;;;;4.78;1.20;;;;;;;;;;4998087;28;20034;-75
2023/07/07 12:53:54;;;;;;;2.10;1.20;;;;;;;;;;5000423;28;20241;-74
2023/07/07 12:56:25;;;;;;;2.80;1.40;;;;;;;;;;5000834;28;20083;-75
2023/07/07 12:58:53;;;;;;;2.40;1.08;;;;;;;;;;4999100;28;20026;-74
2023/07/07 13:01:18;;;;;;;1.45;0.88;;;;;;;;;;5000831;28;20053;-75
2023/07/07 13:04:09;;;;;;;2.45;1.15;;;;;;;;;;5000028;28;20035;-75
2023/07/07 13:06:35;;;;;;;2.13;0.93;;;;;;;;;;5000846;28;20073;-74
2023/07/07 13:09:12;;;;;;;6.03;1.30;;;;;;;;;;4997631;28;20026;-74
2023/07/07 13:11:46;;;;;;;3.60;1.35;;;;;;;;;;4997204;28;20203;-75
2023/07/07 13:14:27;;;;;;;2.28;1.20;;;;;;;;;;5000537;28;20374;-74
2023/07/07 13:16:55;;;;;;;2.22;1.30;;;;;;;;;;5000391;28;20034;-75
2023/07/07 13:19:20;;;;;;;2.33;1.15;;;;;;;;;;5000612;28;20031;-69
2023/07/07 13:21:47;;;;;;;2.45;1.15;;;;;;;;;;5003009;28;20030;-75
2023/07/07 13:24:15;;;;;;;3.90;1.33;;;;;;;;;;5003113;28;20038;-75
2023/07/07 13:26:40;;;;;;;2.45;1.13;;;;;;;;;;5003850;28;20101;-75
2023/07/07 13:29:06;;;;;;;4.45;1.30;;;;;;;;;;5001630;28;20022;-74
2023/07/07 13:31:38;;;;;;;2.83;1.23;;;;;;;;;;5004312;28;20053;-75
2023/07/07 13:34:03;;;;;;;2.45;1.23;;;;;;;;;;5003954;28;20046;-71
2023/07/07 13:36:29;;;;;;;1.95;1.15;;;;;;;;;;5003446;28;20037;-74
2023/07/07 13:38:55;;;;;;;1.48;0.98;;;;;;;;;;5003828;28;20030;-75
2023/07/07 13:41:21;;;;;;;4.03;1.17;;;;;;;;;;5002088;28;20257;-73
2023/07/07 13:43:49;;;;;;;2.67;1.20;;;;;;;;;;5002942;28;20076;-75
2023/07/07 13:46:33;;;;;;;2.63;1.38;;;;;;;;;;5002571;28;20030;-74
2023/07/07 13:49:01;;;;;;;2.17;1.10;;;;;;;;;;5004204;28;20060;-72
2023/07/07 13:51:33;;;;;;;3.78;1.23;;;;;;;;;;5003937;28;20253;-75
2023/07/07 13:54:01;;;;;;;3.13;1.45;;;;;;;;;;5003654;28;20314;-74
2023/07/07 13:56:28;;;;;;;2.75;1.48;;;;;;;;;;5003984;28;20034;-75
2023/07/07 13:58:55;;;;;;;3.67;1.50;;;;;;;;;;5003913;28;20105;-74
2023/07/07 14:01:28;;;;;;;3.97;1.45;;;;;;;;;;4999663;28;20045;-75
2023/07/07 14:03:57;;;;;;;2.13;1.20;;;;;;;;;;5003752;28;20309;-75
2023/07/07 14:06:24;;;;;;;2.53;1.17;;;;;;;;;;5003671;28;20018;-74
2023/07/07 14:08:51;;;;;;;2.08;1.35;;;;;;;;;;5003121;28;20026;-75
2023/07/07 14:11:27;;;;;;;3.65;1.55;;;;;;;;;;5002842;28;20038;-75
2023/07/07 14:13:55;;;;;;;2.50;1.58;;;;;;;;;;5001395;28;20037;-75
2023/07/07 14:16:30;;;;;;;4.38;1.27;;;;;;;;;;5001960;28;20034;-73
2023/07/07 14:18:55;;;;;;;2.17;1.27;;;;;;;;;;5003071;28;20026;-74
2023/07/07 14:21:22;;;;;;;2.60;1.33;;;;;;;;;;5003042;28;20114;-75
2023/07/07 14:23:50;;;;;;;2.00;0.90;;;;;;;;;;5001225;28;20314;-72
2023/07/07 14:26:18;;;;;;;2.05;1.17;;;;;;;;;;5003468;28;20034;-75
2023/07/07 14:28:44;;;;;;;4.18;1.40;;;;;;;;;;5001246;28;20203;-74
2023/07/07 14:31:11;;;;;;;2.97;1.35;;;;;;;;;;5018040;28;20219;-75
2023/07/07 14:33:59;;;;;;;4.35;1.38;;;;;;;;;;5002391;28;20061;-75
2023/07/07 14:36:29;;;;;;;2.95;1.42;;;;;;;;;;5003392;28;20317;-75
2023/07/07 14:38:59;;;;;;;3.90;1.57;;;;;;;;;;5002772;28;20052;-73
2023/07/07 14:41:28;;;;;;;4.13;1.52;;;;;;;;;;5003067;28;20030;-74
2023/07/07 14:43:53;;;;;;;1.63;1.20;;;;;;;;;;5002783;28;20026;-70
2023/07/07 14:46:33;;;;;;;2.15;1.30;;;;;;;;;;5002730;28;20034;-75
2023/07/07 14:49:12;;;;;;;2.53;1.35;;;;;;;;;;5002981;28;20093;-75
2023/07/07 14:51:42;;;;;;;3.08;1.45;;;;;;;;;;5003077;28;20030;-70
2023/07/07 14:54:16;;;;;;;1.85;1.23;;;;;;;;;;5002808;28;20388;-74
2023/07/07 14:56:50;;;;;;;2.22;1.40;;;;;;;;;;5002936;28;20410;-74
2023/07/07 14:59:30;;;;;;;3.28;1.50;;;;;;;;;;5002532;28;20254;-74
2023/07/07 15:01:57;;;;;;;2.25;1.23;;;;;;;;;;5001051;28;20030;-74
2023/07/07 15:04:30;;;;;;;3.35;1.65;;;;;;;;;;5000270;28;20041;-75
2023/07/07 15:06:55;;;;;;;3.13;1.38;;;;;;;;;;5002234;28;20073;-74